首页
METAR-TAF:

METAR-TAF

机场 :

Shawbury, 英格兰

纬度: 52-48N, 经度: 002-40W, 海拔: 76米

当前天气观测

该预报发布于49分钟前的13:20 UTC
风速2节,风向西转西北
温度 4°C
湿度 93%
气压 982 hPa
能见度10公里或以上
散云层高于1000英尺
多云层高于1600英尺
阴天层高于3000英尺

METAR: EGOS 031320Z 30002KT 9999 RA SCT010 BKN016 OVC030 04/03 Q0982 NOSIG RMK GRN GRN

时间: 14:09 (14:09 UTC)

预报

该预报发布于3小时和20分钟前的10:49 UTC
预报有效从03日的 12点(UTC)到 03日的 18点(UTC)
风速3节,风向
能见度10公里或以上
多云层高于1000英尺
小雨
短暂存在
从 03日的 12点(UTC)到 03日的 18点(UTC)
能見度: 6000
几率 40% :
短暂存在
从 03日的 12点(UTC)到 03日的 18点(UTC)
能見度: 3000
多云层高于400英尺
雨, 毛毛雨

TAF: EGOS 031049Z 0312/0318 10003KT 9999 -RA BKN010 TEMPO 0312/0318 6000 RA PROB40 TEMPO 0312/0318 3000 RADZ BKN004

超过4000个机场的气象观测和天气预报(METAR&TAF报告)。

可查询的气象台以黄色和红色小点在地图上表示。

将鼠标移到小点上方,可查看气象台名称。

然后点击查看天气观测和预报。

如需切换地图:点击带黑十字的绿色按钮放大地图;点击带横线的绿色按钮缩小地图;或者点击绿色箭头查看邻近地区的地图。


METAR-TAF: